Latest Weather Observations for Trangie

IDN60801

Issued at 5:04 pm EDT Sunday 21 December 2014 (issued every 30 minutes, with the page automatically refreshed every 10 minutes)

About weather observations | Map of weather stations | Latest weather observations for NSW | Other Formats
Station Details ID: 051049 Name: TRANGIE RESEARCH STATION AWS Lat: -31.99 Lon: 147.95 Height: 215.0 m
Data from the previous 72 hours. | See also: Recent months at Trangie
Date/Time
EDT
Temp
°C
App
Temp
°C
Dew
Point
Rel
Hum
%
Delta-T
°C
Wind Press
QNH
hPa
Press
MSL
hPa
Rain
since 9 am
mm
Dir
 
Spd
km/h
Gust
km/h
Spd
kts
Gust
kts
21/05:00pm 35.0 32.8 7.9 19 15.3 NE 9 13 5 7 1011.3 1010.2 0.0
21/04:30pm 34.9 31.6 7.9 19 15.3 NE 15 20 8 11 1011.6 1010.5 0.0
21/04:00pm 34.3 32.3 8.8 21 14.6 SE 9 19 5 10 1012.0 1011.0 0.0
21/03:30pm 34.8 32.6 9.3 21 14.7 NNW 11 20 6 11 1012.4 1011.4 0.0
21/03:00pm 34.6 31.9 9.1 21 14.6 NNW 13 20 7 11 1012.8 1011.8 0.0
21/02:30pm 33.0 31.1 9.1 23 13.6 NNE 9 20 5 11 1013.4 1012.3 0.0
21/02:00pm 32.7 30.1 10.7 26 12.8 NW 15 26 8 14 1013.9 1012.8 0.0
21/01:30pm 32.9 31.2 12.5 29 12.3 NNW 13 24 7 13 1014.2 1013.1 0.0
21/01:00pm 32.6 29.7 12.3 29 12.1 NNW 19 32 10 17 1014.7 1013.6 0.0
21/12:30pm 31.9 29.3 13.2 32 11.3 NNW 19 30 10 16 1015.1 1014.0 0.0
21/12:00pm 31.1 29.5 13.8 34 10.5 NNE 15 28 8 15 1015.2 1014.1 0.0
21/11:30am 30.0 27.2 13.3 36 10.0 N 20 28 11 15 1015.6 1014.5 0.0
21/11:00am 29.2 26.7 14.2 40 9.1 N 20 32 11 17 1015.9 1014.9 0.0
21/10:30am 28.7 26.8 15.2 43 8.3 NNE 19 28 10 15 1015.9 1014.9 0.0
21/10:00am 27.8 25.9 15.1 46 7.8 NNE 19 33 10 18 1015.9 1014.9 0.0
21/09:30am 26.5 24.5 14.9 49 7.1 NNE 19 30 10 16 1016.1 1015.1 0.0
21/09:00am 26.1 24.2 14.2 48 7.1 NE 17 26 9 14 1016.2 1015.2 0.0
21/08:30am 24.4 21.8 13.3 50 6.5 ENE 19 26 10 14 1016.3 1015.3 0.0
21/08:00am 23.1 20.7 12.7 52 6.0 ENE 17 26 9 14 1016.2 1015.2 0.0
21/07:30am 21.6 19.2 12.7 57 5.1 E 17 26 9 14 1015.9 1014.9 0.0
21/07:00am 20.4 18.4 12.6 61 4.4 E 15 26 8 14 1015.7 1014.6 0.0
21/06:30am 19.3 17.7 12.8 66 3.7 E 13 22 7 12 1015.2 1014.1 0.0
21/06:00am 18.9 17.2 12.4 66 3.7 ESE 13 19 7 10 1014.6 1013.5 0.0
21/05:30am 19.2 17.4 12.0 63 4.0 ESE 13 20 7 11 1014.3 1013.2 0.0
21/05:00am 19.5 17.2 11.8 61 4.3 E 15 24 8 13 1014.1 1013.0 0.0
21/04:30am 20.0 17.8 12.0 60 4.5 E 15 24 8 13 1013.8 1012.7 0.0
21/04:00am 20.1 17.9 12.1 60 4.5 E 15 22 8 12 1013.7 1012.6 0.0
21/03:30am 20.3 18.4 11.8 58 4.8 E 13 20 7 11 1013.6 1012.5 0.0
21/03:00am 20.7 18.4 11.6 56 5.1 E 15 26 8 14 1013.7 1012.6 0.0
21/02:30am 21.0 18.9 11.1 53 5.5 E 13 20 7 11 1013.7 1012.6 0.0
21/02:00am 21.3 19.2 9.9 48 6.2 E 11 17 6 9 1014.0 1012.9 0.0
21/01:30am 21.4 18.9 6.5 38 7.6 E 9 15 5 8 1014.2 1013.1 0.0
21/01:00am 21.7 18.9 5.2 34 8.3 ESE 9 15 5 8 1014.2 1013.1 0.0
21/12:30am 21.1 18.5 4.2 33 8.3 ESE 7 13 4 7 1014.3 1013.2 0.0
21/12:00am 20.9 18.3 4.0 33 8.2 SSE 7 9 4 5 1014.2 1013.1 0.0
 
Date/Time
EDT
Temp
°C
App
Temp
°C
Dew
Point
Rel
Hum
%
Delta-T
°C
Wind Press
QNH
hPa
Press
MSL
hPa
Rain
since 9 am
mm
Dir
 
Spd
km/h
Gust
km/h
Spd
kts
Gust
kts
20/11:30pm 20.9 18.4 4.0 33 8.2 SSE 6 7 3 4 1014.4 1013.3 0.0
20/11:00pm 21.4 18.9 4.0 32 8.5 S 6 9 3 5 1014.3 1013.2 0.0
20/10:30pm 21.4 18.9 3.6 31 8.6 SSW 6 7 3 4 1014.2 1013.1 0.0
20/10:00pm 22.0 20.5 3.2 29 9.1 CALM 0 0 0 0 1014.2 1013.1 0.0
20/09:30pm 23.5 22.1 3.4 27 9.8 CALM 0 0 0 0 1013.9 1012.8 0.0
20/09:00pm 24.5 21.8 2.6 24 10.6 S 6 7 3 4 1013.7 1012.6 0.0
20/08:30pm 26.1 23.1 2.1 21 11.7 SSE 7 9 4 5 1013.5 1012.4 0.0
20/08:00pm 28.9 25.4 1.4 17 13.5 SSE 9 13 5 7 1013.1 1012.1 0.0
20/07:30pm 30.4 27.0 1.8 16 14.3 S 9 19 5 10 1012.8 1011.8 0.0
20/07:00pm 30.9 27.2 2.2 16 14.5 S 11 19 6 10 1012.5 1011.5 0.0
20/06:30pm 31.0 27.6 3.9 18 14.1 SSE 11 17 6 9 1012.4 1011.4 0.0
20/06:00pm 30.8 26.6 3.8 18 14.0 S 15 26 8 14 1012.3 1011.3 0.0
20/05:30pm 30.9 27.6 4.6 19 13.8 SSW 11 19 6 10 1012.3 1011.3 0.0
20/05:00pm 30.7 27.0 4.4 19 13.7 S 13 26 7 14 1012.4 1011.4 0.0
20/04:30pm 31.2 27.1 4.1 18 14.1 SW 15 24 8 13 1012.6 1011.6 0.0
20/04:00pm 31.2 27.4 4.1 18 14.1 SW 13 26 7 14 1013.0 1012.0 0.0
20/03:30pm 30.5 27.2 2.7 17 14.1 SSE 9 15 5 8 1013.6 1012.5 0.0
20/03:00pm 30.7 27.2 3.7 18 13.9 SSW 11 17 6 9 1013.8 1012.7 0.0
20/02:30pm 29.2 25.3 3.2 19 13.2 SSW 13 22 7 12 1014.3 1013.2 0.0
20/02:00pm 28.8 24.8 2.9 19 13.0 S 13 26 7 14 1014.8 1013.7 0.0
20/01:30pm 29.0 24.7 3.1 19 13.1 SSE 15 26 8 14 1015.1 1014.0 0.0
20/01:00pm 28.2 24.0 3.8 21 12.4 S 15 24 8 13 1015.5 1014.4 0.0
20/12:30pm 27.3 24.2 3.7 22 11.9 SSW 9 22 5 12 1015.9 1014.9 0.0
20/12:00pm 27.6 24.4 5.2 24 11.6 SSW 11 17 6 9 1016.2 1015.2 0.0
20/11:30am 26.5 23.8 5.5 26 10.9 SW 9 17 5 9 1016.7 1015.7 0.0
20/11:00am 25.6 22.3 6.3 29 10.1 S 13 19 7 10 1016.8 1015.8 0.0
20/10:30am 24.9 21.8 7.1 32 9.4 SSE 13 20 7 11 1017.0 1016.0 0.0
20/10:00am 23.8 20.7 7.4 35 8.7 SE 13 20 7 11 1017.0 1016.0 0.0
20/09:30am 22.3 20.5 10.8 48 6.4 ESE 11 20 6 11 1017.2 1016.2 0.0
20/09:00am 21.4 19.3 11.1 52 5.7 ESE 13 20 7 11 1017.0 1016.0 0.0
20/08:30am 20.3 18.2 11.2 56 5.1 ESE 13 24 7 13 1016.9 1015.9 0.0
20/08:00am 19.2 16.8 11.5 61 4.3 E 15 28 8 15 1016.7 1015.7 0.0
20/07:30am 17.9 15.8 11.2 65 3.7 ESE 13 26 7 14 1016.5 1015.5 0.0
20/07:00am 16.2 15.1 10.5 69 3.0 SE 7 9 4 5 1016.4 1015.4 0.0
20/06:30am 12.7 11.1 7.8 72 2.4 SE 6 7 3 4 1016.1 1015.1 0.0
20/06:00am 11.7 9.3 4.4 61 3.3 SE 6 9 3 5 1015.8 1014.7 0.0
20/05:30am 12.4 10.5 2.8 52 4.3 SE 2 7 1 4 1015.7 1014.6 0.0
20/05:00am 13.0 10.4 3.1 51 4.4 SE 6 9 3 5 1015.4 1014.3 0.0
20/04:30am 13.1 10.1 1.1 44 5.2 SE 6 9 3 5 1015.2 1014.1 0.0
20/04:00am 14.3 10.6 0.2 38 6.0 SE 9 15 5 8 1015.0 1013.9 0.0
20/03:30am 14.7 11.4 0.2 37 6.2 SE 7 11 4 6 1014.9 1013.8 0.0
20/03:00am 15.3 11.7 0.3 36 6.5 SSE 9 13 5 7 1014.9 1013.8 0.0
20/02:30am 15.6 12.4 0.6 36 6.5 S 7 11 4 6 1015.2 1014.1 0.0
20/02:00am 15.9 12.7 0.5 35 6.7 S 7 11 4 6 1015.4 1014.3 0.0
20/01:30am 15.6 12.4 -0.2 34 6.8 SSE 6 9 3 5 1015.6 1014.5 0.0
20/01:00am 16.6 13.2 -0.6 31 7.4 S 7 9 4 5 1015.8 1014.7 0.0
20/12:30am 17.6 13.9 -0.2 30 7.8 S 9 11 5 6 1015.9 1014.9 0.0
20/12:00am 17.9 14.1 -0.4 29 8.0 S 9 11 5 6 1016.0 1015.0 0.0
 
Date/Time
EDT
Temp
°C
App
Temp
°C
Dew
Point
Rel
Hum
%
Delta-T
°C
Wind Press
QNH
hPa
Press
MSL
hPa
Rain
since 9 am
mm
Dir
 
Spd
km/h
Gust
km/h
Spd
kts
Gust
kts
19/11:30pm 18.5 15.1 -0.8 27 8.4 S 7 11 4 6 1016.0 1015.0 0.0
19/11:00pm 20.0 16.1 -1.2 24 9.2 S 9 13 5 7 1015.9 1014.9 0.0
19/10:30pm 20.2 16.0 -1.0 24 9.3 S 11 15 6 8 1015.8 1014.7 0.0
19/10:00pm 21.0 16.8 -0.9 23 9.7 S 11 17 6 9 1015.3 1014.2 0.0
19/09:30pm 22.3 17.2 -1.7 20 10.6 SSW 15 17 8 9 1015.1 1014.0 0.0
19/09:00pm 22.8 18.2 -1.3 20 10.7 SSW 13 17 7 9 1014.9 1013.8 0.0
19/08:30pm 24.1 19.4 -1.7 18 11.5 SSW 13 20 7 11 1014.6 1013.5 0.0
19/08:00pm 26.0 20.6 -1.7 16 12.6 SSW 17 24 9 13 1014.1 1013.0 0.0
19/07:30pm 27.2 21.3 -2.6 14 13.4 SSW 19 28 10 15 1013.7 1012.6 0.0
19/07:00pm 27.8 20.8 -3.1 13 13.9 SSW 24 35 13 19 1013.5 1012.4 0.0
19/06:30pm 28.9 22.5 -4.5 11 14.8 SW 20 33 11 18 1013.0 1012.0 0.0
19/06:00pm 28.7 21.2 -4.6 11 14.7 SW 26 39 14 21 1012.8 1011.8 0.0
19/05:30pm 29.4 21.7 -2.9 12 14.7 SW 28 37 15 20 1012.6 1011.6 0.0
19/05:00pm 29.8 22.5 -2.6 12 14.9 SW 26 39 14 21 1012.6 1011.6 0.0
19/04:30pm 29.3 23.1 -3.0 12 14.7 SW 20 33 11 18 1012.8 1011.8 0.0
19/04:00pm 29.3 23.0 -0.9 14 14.3 WSW 22 33 12 18 1012.9 1011.9 0.0
19/03:36pm 29.2 22.9 -1.0 14 14.2 SW 22 56 12 30 1013.0 1012.0 0.0
19/03:30pm 28.6 22.7 -0.5 15 13.8 WSW 20 39 11 21 1013.0 1012.0 0.0
19/03:00pm 28.7 21.6 -1.4 14 14.0 SW 26 39 14 21 1013.5 1012.4 0.0
19/02:30pm 29.5 22.6 0.2 15 14.1 SW 26 41 14 22 1013.7 1012.6 0.0
19/02:00pm 27.9 21.7 -0.2 16 13.3 SW 22 37 12 20 1013.9 1012.8 0.0
19/01:30pm 27.7 21.3 1.2 18 12.8 SW 24 41 13 22 1014.3 1013.2 0.0
19/01:00pm 26.7 20.2 0.4 18 12.5 WSW 24 39 13 21 1014.5 1013.4 0.0
19/12:30pm 27.0 21.3 2.8 21 12.0 SSW 22 35 12 19 1014.9 1013.8 0.0
19/12:00pm 25.4 19.5 4.0 25 10.7 SW 24 39 13 21 1015.0 1013.9 0.0
19/11:30am 25.0 19.4 5.2 28 10.1 SSW 24 35 13 19 1015.0 1013.9 0.0
19/11:00am 24.8 19.5 5.1 28 10.0 SSW 22 35 12 19 1015.0 1013.9 0.0
19/10:30am 24.1 18.9 5.5 30 9.5 SSW 22 37 12 20 1015.0 1013.9 0.0
19/10:00am 23.4 19.2 5.8 32 9.0 S 17 32 9 17 1014.9 1013.8 0.0
19/09:30am 22.5 17.9 6.7 36 8.2 SSW 20 28 11 15 1014.8 1013.7 0.0
19/09:00am 22.1 17.6 6.3 36 8.1 S 19 32 10 17 1014.8 1013.7 0.0
19/08:30am 21.4 17.1 6.9 39 7.5 S 19 28 10 15 1014.7 1013.6 0.0
19/08:00am 20.2 16.2 6.5 41 7.0 S 17 24 9 13 1014.2 1013.1 0.0
19/07:30am 18.9 16.9 6.1 43 6.4 SSW 6 9 3 5 1013.9 1012.8 0.0
19/07:00am 17.7 15.4 5.6 45 5.9 SSW 7 9 4 5 1013.6 1012.5 0.0
19/06:30am 17.4 14.7 5.4 45 5.9 S 9 13 5 7 1013.0 1012.0 0.0
19/06:00am 17.2 14.0 4.9 44 5.9 SSW 11 15 6 8 1012.7 1011.7 0.0
19/05:30am 17.3 14.0 4.6 43 6.1 SSW 11 15 6 8 1012.1 1011.1 0.0
19/05:00am 17.5 13.8 4.5 42 6.2 SSW 13 19 7 10 1011.6 1010.5 0.0
19/04:30am 16.7 13.0 4.4 44 5.9 SW 13 15 7 8 1011.2 1010.1 0.0
19/04:00am 17.4 14.7 3.7 40 6.5 SSW 7 7 4 4 1010.8 1009.7 0.0
19/03:30am 18.6 15.4 3.3 36 7.2 SSW 9 11 5 6 1010.8 1009.7 0.0
19/03:00am 20.0 16.2 3.7 34 7.8 SSW 13 17 7 9 1010.7 1009.6 0.0
19/02:30am 21.2 17.3 3.4 31 8.6 SSW 13 19 7 10 1010.6 1009.5 0.0
19/02:00am 22.4 17.2 3.5 29 9.2 SSW 20 30 11 16 1010.5 1009.4 0.0
19/01:30am 23.1 17.4 2.6 26 9.9 SSW 22 33 12 18 1010.3 1009.2 0.0
19/01:00am 23.1 17.4 -0.4 21 10.7 SSW 19 24 10 13 1010.3 1009.2 0.0
19/12:30am 23.8 17.9 -0.5 20 11.1 SW 20 28 11 15 1009.9 1008.8 0.0
19/12:00am 19.9 15.7 1.4 29 8.5 SW 13 17 7 9 1009.6 1008.5 0.0
 
Date/Time
EDT
Temp
°C
App
Temp
°C
Dew
Point
Rel
Hum
%
Delta-T
°C
Wind Press
QNH
hPa
Press
MSL
hPa
Rain
since 9 am
mm
Dir
 
Spd
km/h
Gust
km/h
Spd
kts
Gust
kts
18/11:30pm 18.9 17.0 2.7 34 7.6 W 2 7 1 4 1009.4 1008.3 0.0
18/11:00pm 19.5 16.9 1.0 29 8.4 N 4 9 2 5 1009.2 1008.1 0.0
18/10:30pm 21.0 19.1 0.8 26 9.2 CALM 0 0 0 0 1009.0 1007.9 0.0
18/10:00pm 22.4 20.6 0.9 24 10.0 CALM 0 0 0 0 1008.7 1007.6 0.0
18/09:30pm 23.8 21.6 -1.2 19 11.3 CALM 0 0 0 0 1008.3 1007.3 0.0
18/09:00pm 24.8 22.2 -1.9 17 12.0 SSW 2 6 1 3 1008.1 1007.1 0.0
18/08:30pm 27.3 22.9 -2.5 14 13.5 SW 11 15 6 8 1007.6 1006.6 0.0
18/08:00pm 29.8 24.1 -3.8 11 15.2 SW 17 26 9 14 1007.3 1006.2 0.0
18/07:30pm 32.0 24.9 -4.8 9 16.6 WSW 24 35 13 19 1006.7 1005.6 0.0
18/07:00pm 32.4 25.1 -3.1 10 16.6 W 26 35 14 19 1006.4 1005.3 0.0
18/06:30pm 32.3 26.1 -3.2 10 16.5 NW 20 30 11 16 1006.4 1005.3 0.0
18/06:00pm 32.2 24.5 -3.2 10 16.5 WNW 28 39 15 21 1006.3 1005.2 0.0
18/05:40pm 32.7 25.0 -2.9 10 16.7 WNW 28 59 15 32 1006.4 1005.3 0.0
18/05:30pm 32.4 25.8 -3.1 10 16.5 NW 22 35 12 19 1006.4 1005.3 0.0

Other Formats:

Comma delimited format used in spreadsheet applications
http://www.bom.gov.au/fwo/IDN60801/IDN60801.95710.axf

JavaScript Object Notation format (JSON) in row-major order
http://www.bom.gov.au/fwo/IDN60801/IDN60801.95710.json